Aérodrome :
LOGIN :

S'inscrire | Disclaimer

   EN    FR    IT 

 










Légende :    VFR   VFR Marginal   IFR   IFR Intensif   IFR Très Intensif
Visi : 
Plafond : 
>= 8 km
>= 3000ft
5 à 8 km
1000 à 3000 ft
1500m à 5 km
500 à 1000 ft
800 à 1500m
200 à 500 ft
< 800m
< 200 ft
Symboles :   Orages  Brouillard  Fortes neiges  Fortes précipitations  Vent > 20 kt
SIGMETs :   Divers  Orages  Givrage  Turbulence  Onde Orograph.  Cendres Volcan.






- Altitude de l'aérodrome : 6 ft
- Code IATA : PSA


LIRP - Galileo Galilei Pisa

DERNIER METAR :
  • 191915Z 31006KT 9999 FEW030 12/09 Q1019 NOSIG

METARs EXPIRÉS :
  • 191845Z 29006KT 9999 SCT030 12/10 Q1019 NOSIG
  • 191815Z 28007KT 9999 FEW025 SCT030 12/10 Q1019 NOSIG
  • 191745Z 26008KT 9999 FEW023 SCT030 12/10 Q1019 NOSIG
  • 191715Z 27010KT 9999 FEW020 SCT030 12/10 Q1018 NOSIG
  • 191645Z 27008KT 9999 SCT020 SCT030 12/10 Q1018 NOSIG

TAF TAF LIRP
Valide du 19 à 18h jusqu'au 20 à 18h UTC


191700Z 1918/2018 28010KT 9999 SCT025
BECMG 1919/1921 06005KT
PROB40
TEMPO 1922/2007 5000 BR



MET'MAP, la Météo Aéronautique d'un coup d'oeil ! - Copyright ORBIFLY Décembre 2007 - Disclaimer

ORBIFLY MET'MAP TEAM :

Programmation & Développement : Alexandra Zaïnal
Sur une idée originale de : Baudouin d'Aumeries
Assistance à la programmation : Marc-Olivier Méhu
Soutien technique & logistique : Manuel Goepfert

Contact : metmap@orbifly.com




SOURCES & CREDITS :

   NOAA